• Join FlightAware (Why Join?)
  • Login
  • US Flag 
11:48AM EDT


 

Airport Tracker/Info


-or-


 

Live Flight TrackerFlight Track Log ✈ EJA694 ✈ 15-Jul-2013 ✈ KAPA - KRAP

Flight Track Log - Related Links

Times and Time Zones

All times are in EDT time to prevent confusion due to time zone crossing. See the EJA694 flight status page for this flight to view local times or setup timezone preferences in your user account.

Time Position Orientation Groundspeed Altitude Reporting Facility
EDT Latitude Longitude Course Direction KTS MPH feet Rate Location/Type
09:38AM 39.5833 -104.8500 339° North 169 194 6,900  Level Denver TRACON
09:39AM 39.6500 -104.8833 339° North 236 272 7,900 1,500 Climbing Denver TRACON
09:40AM 39.7167 -104.8833 360° North 264 304 9,900 1,980 Climbing Denver TRACON
09:41AM 39.8000 -104.8833 360° North 294 338 12,000 2,040 Climbing Denver TRACON
09:42AM 39.8833 -104.8500 17° North 305 351 14,100 2,040 Climbing Denver TRACON
09:44AM 39.9894 -104.7833 26° Northeast 308 354 16,900 1,800 Climbing Denver Center
09:45AM 40.0742 -104.7406 21° North 323 372 18,400 1,620 Climbing Denver Center
09:46AM 40.1575 -104.6969 22° Northeast 322 371 20,300 1,740 Climbing Denver Center
09:47AM 40.2522 -104.6481 21° North 336 387 22,000 1,560 Climbing Denver Center
09:48AM 40.3411 -104.6008 22° Northeast 344 396 23,500 1,380 Climbing Denver Center
09:49AM 40.4303 -104.5544 22° Northeast 339 390 24,900 1,260 Climbing Denver Center
09:50AM 40.5222 -104.5044 22° Northeast 358 412 26,200 1,200 Climbing Denver Center
09:51AM 40.6144 -104.4556 22° Northeast 357 411 27,400 840 Climbing Denver Center
09:52AM 40.7114 -104.4053 21° North 373 429 28,000 240 Climbing Denver Center
09:53AM 40.8142 -104.3639 17° North 388 447 28,000  Level Denver Center
09:54AM 40.9658 -104.3006 17° North 405 466 28,000  Level Denver Center
09:55AM 41.0731 -104.2561 17° North 406 467 28,000  Level Denver Center
09:56AM 41.1764 -104.2144 17° North 405 466 28,000  Level Denver Center
09:57AM 41.2972 -104.1647 17° North 406 467 28,000  Level Denver Center
09:58AM 41.4006 -104.1236 17° North 405 466 28,000  Level Denver Center
09:59AM 41.5050 -104.0792 18° North 411 473 28,000  Level Denver Center
10:00AM 41.6250 -104.0289 17° North 406 467 28,000  Level Denver Center
10:01AM 41.7289 -103.9858 17° North 407 468 28,000  Level Denver Center
10:02AM 41.8503 -103.9356 17° North 410 472 28,000  Level Denver Center
10:03AM 41.9553 -103.8911 17° North 412 474 28,000  Level Denver Center
10:05AM 42.0778 -103.8397 17° North 413 475 28,000  Level Denver Center
10:06AM 42.1825 -103.7944 18° North 413 475 28,000  Level Denver Center
10:07AM 42.3050 -103.7428 17° North 415 478 28,000  Level Denver Center
10:08AM 42.4114 -103.6969 18° North 420 483 28,000  Level Denver Center
10:09AM 42.5339 -103.6453 17° North 416 479 28,000  Level Denver Center
10:10AM 42.6403 -103.5978 18° North 419 482 28,000  Level Denver Center
10:11AM 42.7639 -103.5461 17° North 419 482 28,000 -540 Level Denver Center
10:12AM 42.8728 -103.4986 18° North 426 490 26,900 -1,620 Descending Denver Center
10:13AM 42.9814 -103.4494 18° North 430 495 24,700 -2,340 Descending Denver Center
10:14AM 43.1086 -103.3922 18° North 432 497 22,100 -2,340 Descending Denver Center
10:15AM 43.2197 -103.3447 17° North 435 501 19,900 -2,460 Descending Denver Center
10:16AM 43.3064 -103.3067 18° North 411 473 18,000 -2,100 Descending Denver Center
10:17AM 43.4081 -103.2611 18° North 396 456 16,400 -1,980 Descending Denver Center
10:18AM 43.5142 -103.2169 17° North 383 441 14,100 -2,160 Descending Denver Center
10:19AM 43.6081 -103.1764 17° North 365 420 12,100 -2,040 Descending Denver Center
10:20AM 43.7000 -103.1506 11° North 302 348 10,000 -1,860 Descending Denver Center
10:21AM 43.7778 -103.1289 11° North 288 331 8,400 -1,020 Descending Denver Center
10:22AM 43.8586 -103.1150 North 283 326 8,000 -300 Descending Denver Center
10:22AM 43.8917 -103.1336 338° Northwest 276 318 8,000  Level Denver Center
10:23AM 43.9200 -103.1567 330° Northwest 216 249 8,000  Level Denver Center
10:23AM 43.9442 -103.1686 340° North 241 277 8,000  Level Denver Center
10:24AM 44.0061 -103.2092 335° Northwest 226 260 8,000  Level Denver Center
10:25AM 44.0575 -103.2456 333° Northwest 221 254 8,000  Level Denver Center
10:26AM 44.1161 -103.2700 343° North 215 247 8,000  Level Denver Center
10:27AM 44.1686 -103.2503 15° North 206 237 8,000 -420 Level Denver Center
10:29AM 44.1997 -103.1811 58° Northeast 196 226 7,000 -780 Descending Denver Center